sensor_id;sensor_type;location;lat;lon;timestamp;P1;durP1;ratioP1;P2;durP2;ratioP2
36715;SDS011;22699;51.034;3.730;2023-04-24T00:01:00;20.08;;;13.98;;
36715;SDS011;22699;51.034;3.730;2023-04-24T00:03:29;19.55;;;13.80;;
36715;SDS011;22699;51.034;3.730;2023-04-24T00:05:57;24.02;;;13.38;;
36715;SDS011;22699;51.034;3.730;2023-04-24T00:08:26;21.98;;;12.77;;
36715;SDS011;22699;51.034;3.730;2023-04-24T00:10:53;19.27;;;12.70;;
36715;SDS011;22699;51.034;3.730;2023-04-24T00:13:20;18.10;;;12.15;;
36715;SDS011;22699;51.034;3.730;2023-04-24T00:15:45;19.27;;;12.52;;
36715;SDS011;22699;51.034;3.730;2023-04-24T00:18:12;17.50;;;12.23;;
36715;SDS011;22699;51.034;3.730;2023-04-24T00:20:38;15.18;;;11.88;;
36715;SDS011;22699;51.034;3.730;2023-04-24T00:23:06;16.98;;;12.27;;
36715;SDS011;22699;51.034;3.730;2023-04-24T00:25:38;19.08;;;12.55;;
36715;SDS011;22699;51.034;3.730;2023-04-24T00:28:05;13.68;;;11.20;;
36715;SDS011;22699;51.034;3.730;2023-04-24T00:30:30;16.30;;;11.90;;
36715;SDS011;22699;51.034;3.730;2023-04-24T00:32:56;14.80;;;11.10;;
36715;SDS011;22699;51.034;3.730;2023-04-24T00:35:23;12.75;;;10.27;;
36715;SDS011;22699;51.034;3.730;2023-04-24T00:37:50;16.25;;;11.23;;
36715;SDS011;22699;51.034;3.730;2023-04-24T00:40:23;12.63;;;10.02;;
36715;SDS011;22699;51.034;3.730;2023-04-24T00:42:51;10.35;;;9.02;;
36715;SDS011;22699;51.034;3.730;2023-04-24T00:45:17;11.43;;;8.73;;
36715;SDS011;22699;51.034;3.730;2023-04-24T00:47:43;12.50;;;8.95;;
36715;SDS011;22699;51.034;3.730;2023-04-24T00:50:10;14.35;;;8.68;;
36715;SDS011;22699;51.034;3.730;2023-04-24T00:52:39;10.63;;;9.52;;
36715;SDS011;22699;51.034;3.730;2023-04-24T00:55:05;13.60;;;9.35;;
36715;SDS011;22699;51.034;3.730;2023-04-24T00:57:33;13.02;;;10.23;;
36715;SDS011;22699;51.034;3.730;2023-04-24T00:59:59;13.85;;;9.13;;
36715;SDS011;22699;51.034;3.730;2023-04-24T01:02:31;13.07;;;9.65;;
36715;SDS011;22699;51.034;3.730;2023-04-24T01:05:00;9.80;;;8.45;;
36715;SDS011;22699;51.034;3.730;2023-04-24T01:07:29;10.02;;;7.43;;
36715;SDS011;22699;51.034;3.730;2023-04-24T01:09:55;9.90;;;7.75;;
36715;SDS011;22699;51.034;3.730;2023-04-24T01:12:30;9.88;;;8.68;;
36715;SDS011;22699;51.034;3.730;2023-04-24T01:14:55;13.73;;;9.32;;
36715;SDS011;22699;51.034;3.730;2023-04-24T01:17:22;11.63;;;8.57;;
36715;SDS011;22699;51.034;3.730;2023-04-24T01:19:47;10.30;;;8.02;;
36715;SDS011;22699;51.034;3.730;2023-04-24T01:22:13;8.77;;;7.65;;
36715;SDS011;22699;51.034;3.730;2023-04-24T01:24:40;9.93;;;7.97;;
36715;SDS011;22699;51.034;3.730;2023-04-24T01:27:07;9.65;;;7.68;;
36715;SDS011;22699;51.034;3.730;2023-04-24T01:29:33;8.70;;;7.78;;
36715;SDS011;22699;51.034;3.730;2023-04-24T01:32:00;12.43;;;8.18;;
36715;SDS011;22699;51.034;3.730;2023-04-24T01:34:26;10.30;;;8.77;;
36715;SDS011;22699;51.034;3.730;2023-04-24T01:36:52;12.23;;;8.68;;
36715;SDS011;22699;51.034;3.730;2023-04-24T01:39:18;11.73;;;8.70;;
36715;SDS011;22699;51.034;3.730;2023-04-24T01:41:45;9.82;;;8.82;;
36715;SDS011;22699;51.034;3.730;2023-04-24T01:44:11;9.75;;;8.75;;
36715;SDS011;22699;51.034;3.730;2023-04-24T01:46:37;12.40;;;9.25;;
36715;SDS011;22699;51.034;3.730;2023-04-24T01:49:03;11.93;;;9.63;;
36715;SDS011;22699;51.034;3.730;2023-04-24T01:51:29;13.45;;;10.70;;
36715;SDS011;22699;51.034;3.730;2023-04-24T01:53:55;13.75;;;10.50;;
36715;SDS011;22699;51.034;3.730;2023-04-24T01:56:21;12.55;;;11.25;;
36715;SDS011;22699;51.034;3.730;2023-04-24T01:58:47;13.32;;;11.50;;
36715;SDS011;22699;51.034;3.730;2023-04-24T02:01:18;12.95;;;11.43;;
36715;SDS011;22699;51.034;3.730;2023-04-24T02:03:45;12.13;;;10.77;;
36715;SDS011;22699;51.034;3.730;2023-04-24T02:06:10;12.25;;;10.95;;
36715;SDS011;22699;51.034;3.730;2023-04-24T02:08:36;12.93;;;11.48;;
36715;SDS011;22699;51.034;3.730;2023-04-24T02:11:02;13.80;;;11.65;;
36715;SDS011;22699;51.034;3.730;2023-04-24T02:13:28;13.40;;;12.00;;
36715;SDS011;22699;51.034;3.730;2023-04-24T02:15:53;14.80;;;13.20;;
36715;SDS011;22699;51.034;3.730;2023-04-24T02:18:19;13.52;;;11.38;;
36715;SDS011;22699;51.034;3.730;2023-04-24T02:20:45;15.68;;;12.38;;
36715;SDS011;22699;51.034;3.730;2023-04-24T02:23:11;15.85;;;13.20;;
36715;SDS011;22699;51.034;3.730;2023-04-24T02:25:38;16.98;;;14.27;;
36715;SDS011;22699;51.034;3.730;2023-04-24T02:28:04;15.90;;;13.55;;
36715;SDS011;22699;51.034;3.730;2023-04-24T02:30:29;16.60;;;14.77;;
36715;SDS011;22699;51.034;3.730;2023-04-24T02:32:55;16.27;;;14.55;;
36715;SDS011;22699;51.034;3.730;2023-04-24T02:35:21;20.00;;;16.00;;
36715;SDS011;22699;51.034;3.730;2023-04-24T02:37:47;19.05;;;16.70;;
36715;SDS011;22699;51.034;3.730;2023-04-24T02:40:14;16.90;;;14.90;;
36715;SDS011;22699;51.034;3.730;2023-04-24T02:42:39;19.75;;;16.77;;
36715;SDS011;22699;51.034;3.730;2023-04-24T02:45:05;18.58;;;16.58;;
36715;SDS011;22699;51.034;3.730;2023-04-24T02:47:32;18.42;;;14.68;;
36715;SDS011;22699;51.034;3.730;2023-04-24T02:49:58;16.83;;;14.23;;
36715;SDS011;22699;51.034;3.730;2023-04-24T02:52:24;15.23;;;12.95;;
36715;SDS011;22699;51.034;3.730;2023-04-24T02:54:49;16.40;;;11.80;;
36715;SDS011;22699;51.034;3.730;2023-04-24T02:57:15;11.80;;;9.60;;
36715;SDS011;22699;51.034;3.730;2023-04-24T02:59:41;13.15;;;8.60;;
36715;SDS011;22699;51.034;3.730;2023-04-24T03:02:06;10.77;;;6.75;;
36715;SDS011;22699;51.034;3.730;2023-04-24T03:04:32;10.68;;;6.47;;
36715;SDS011;22699;51.034;3.730;2023-04-24T03:06:58;8.25;;;5.47;;
36715;SDS011;22699;51.034;3.730;2023-04-24T03:09:24;11.93;;;5.15;;
36715;SDS011;22699;51.034;3.730;2023-04-24T03:11:52;11.25;;;4.68;;
36715;SDS011;22699;51.034;3.730;2023-04-24T03:14:17;24.08;;;6.60;;
36715;SDS011;22699;51.034;3.730;2023-04-24T03:16:43;13.68;;;4.65;;
36715;SDS011;22699;51.034;3.730;2023-04-24T03:19:08;10.38;;;4.90;;
36715;SDS011;22699;51.034;3.730;2023-04-24T03:21:34;14.98;;;6.07;;
36715;SDS011;22699;51.034;3.730;2023-04-24T03:24:05;9.90;;;6.75;;
36715;SDS011;22699;51.034;3.730;2023-04-24T03:26:32;8.85;;;6.38;;
36715;SDS011;22699;51.034;3.730;2023-04-24T03:28:58;11.02;;;7.07;;
36715;SDS011;22699;51.034;3.730;2023-04-24T03:31:24;13.05;;;8.00;;
36715;SDS011;22699;51.034;3.730;2023-04-24T03:33:49;12.02;;;7.18;;
36715;SDS011;22699;51.034;3.730;2023-04-24T03:36:16;15.18;;;7.70;;
36715;SDS011;22699;51.034;3.730;2023-04-24T03:38:42;11.68;;;8.70;;
36715;SDS011;22699;51.034;3.730;2023-04-24T03:41:08;11.75;;;8.73;;
36715;SDS011;22699;51.034;3.730;2023-04-24T03:43:33;13.00;;;8.93;;
36715;SDS011;22699;51.034;3.730;2023-04-24T03:45:59;13.70;;;9.73;;
36715;SDS011;22699;51.034;3.730;2023-04-24T03:48:25;14.57;;;9.80;;
36715;SDS011;22699;51.034;3.730;2023-04-24T03:50:51;15.73;;;11.85;;
36715;SDS011;22699;51.034;3.730;2023-04-24T03:53:17;20.88;;;11.20;;
36715;SDS011;22699;51.034;3.730;2023-04-24T03:55:42;19.17;;;11.82;;
36715;SDS011;22699;51.034;3.730;2023-04-24T03:58:09;17.83;;;11.43;;
36715;SDS011;22699;51.034;3.730;2023-04-24T04:00:36;22.52;;;11.82;;
36715;SDS011;22699;51.034;3.730;2023-04-24T04:03:02;19.35;;;11.82;;
36715;SDS011;22699;51.034;3.730;2023-04-24T04:05:29;21.00;;;12.35;;
36715;SDS011;22699;51.034;3.730;2023-04-24T04:07:55;19.23;;;11.98;;
36715;SDS011;22699;51.034;3.730;2023-04-24T04:10:21;16.05;;;11.10;;
36715;SDS011;22699;51.034;3.730;2023-04-24T04:12:47;19.15;;;11.10;;
36715;SDS011;22699;51.034;3.730;2023-04-24T04:15:12;19.65;;;11.65;;
36715;SDS011;22699;51.034;3.730;2023-04-24T04:17:38;19.52;;;12.23;;
36715;SDS011;22699;51.034;3.730;2023-04-24T04:20:04;18.95;;;11.93;;
36715;SDS011;22699;51.034;3.730;2023-04-24T04:22:34;22.45;;;11.65;;
36715;SDS011;22699;51.034;3.730;2023-04-24T04:25:03;19.90;;;11.32;;
36715;SDS011;22699;51.034;3.730;2023-04-24T04:27:29;18.63;;;11.57;;
36715;SDS011;22699;51.034;3.730;2023-04-24T04:30:00;21.25;;;11.50;;
36715;SDS011;22699;51.034;3.730;2023-04-24T04:32:30;19.50;;;11.05;;
36715;SDS011;22699;51.034;3.730;2023-04-24T04:34:59;13.43;;;11.20;;
36715;SDS011;22699;51.034;3.730;2023-04-24T04:39:54;20.15;;;10.55;;
36715;SDS011;22699;51.034;3.730;2023-04-24T04:42:20;16.75;;;11.38;;
36715;SDS011;22699;51.034;3.730;2023-04-24T04:45:03;16.63;;;10.85;;
36715;SDS011;22699;51.034;3.730;2023-04-24T04:47:38;15.40;;;10.32;;
36715;SDS011;22699;51.034;3.730;2023-04-24T04:50:06;19.00;;;10.85;;
36715;SDS011;22699;51.034;3.730;2023-04-24T04:52:32;15.57;;;10.82;;
36715;SDS011;22699;51.034;3.730;2023-04-24T04:54:58;18.40;;;11.10;;
36715;SDS011;22699;51.034;3.730;2023-04-24T04:57:27;22.20;;;11.77;;
36715;SDS011;22699;51.034;3.730;2023-04-24T04:59:52;20.45;;;11.57;;
36715;SDS011;22699;51.034;3.730;2023-04-24T05:02:18;20.80;;;11.50;;
36715;SDS011;22699;51.034;3.730;2023-04-24T05:04:44;16.73;;;10.85;;
36715;SDS011;22699;51.034;3.730;2023-04-24T05:07:10;13.65;;;10.35;;
36715;SDS011;22699;51.034;3.730;2023-04-24T05:09:36;17.92;;;11.57;;
36715;SDS011;22699;51.034;3.730;2023-04-24T05:12:02;17.38;;;11.55;;
36715;SDS011;22699;51.034;3.730;2023-04-24T05:14:28;16.85;;;11.77;;
36715;SDS011;22699;51.034;3.730;2023-04-24T05:19:44;20.03;;;12.60;;
36715;SDS011;22699;51.034;3.730;2023-04-24T05:22:09;19.08;;;11.85;;
36715;SDS011;22699;51.034;3.730;2023-04-24T05:24:42;16.88;;;11.82;;
36715;SDS011;22699;51.034;3.730;2023-04-24T05:27:11;18.48;;;11.23;;
36715;SDS011;22699;51.034;3.730;2023-04-24T05:29:38;19.50;;;12.90;;
36715;SDS011;22699;51.034;3.730;2023-04-24T05:32:03;16.00;;;11.75;;
36715;SDS011;22699;51.034;3.730;2023-04-24T05:34:30;17.17;;;11.95;;
36715;SDS011;22699;51.034;3.730;2023-04-24T05:36:57;19.05;;;12.63;;
36715;SDS011;22699;51.034;3.730;2023-04-24T05:39:25;20.88;;;12.73;;
36715;SDS011;22699;51.034;3.730;2023-04-24T05:41:51;19.15;;;12.88;;
36715;SDS011;22699;51.034;3.730;2023-04-24T05:44:17;16.52;;;12.48;;
36715;SDS011;22699;51.034;3.730;2023-04-24T05:46:43;24.02;;;12.90;;
36715;SDS011;22699;51.034;3.730;2023-04-24T05:49:08;23.50;;;13.07;;
36715;SDS011;22699;51.034;3.730;2023-04-24T05:51:34;23.60;;;13.60;;
36715;SDS011;22699;51.034;3.730;2023-04-24T05:54:00;25.65;;;15.07;;
36715;SDS011;22699;51.034;3.730;2023-04-24T05:56:28;19.70;;;13.18;;
36715;SDS011;22699;51.034;3.730;2023-04-24T05:58:55;23.02;;;13.75;;
36715;SDS011;22699;51.034;3.730;2023-04-24T06:01:24;26.98;;;14.43;;
36715;SDS011;22699;51.034;3.730;2023-04-24T06:03:50;25.15;;;16.50;;
36715;SDS011;22699;51.034;3.730;2023-04-24T06:06:15;27.50;;;15.52;;
36715;SDS011;22699;51.034;3.730;2023-04-24T06:08:42;26.45;;;14.73;;
36715;SDS011;22699;51.034;3.730;2023-04-24T06:11:11;25.55;;;15.35;;
36715;SDS011;22699;51.034;3.730;2023-04-24T06:13:36;32.25;;;15.93;;
36715;SDS011;22699;51.034;3.730;2023-04-24T06:16:03;29.02;;;15.57;;
36715;SDS011;22699;51.034;3.730;2023-04-24T06:18:28;25.27;;;15.80;;
36715;SDS011;22699;51.034;3.730;2023-04-24T06:20:54;26.80;;;16.10;;
36715;SDS011;22699;51.034;3.730;2023-04-24T06:23:20;29.08;;;15.70;;
36715;SDS011;22699;51.034;3.730;2023-04-24T06:25:47;29.13;;;16.38;;
36715;SDS011;22699;51.034;3.730;2023-04-24T06:28:14;25.30;;;16.08;;
36715;SDS011;22699;51.034;3.730;2023-04-24T06:30:39;33.97;;;14.93;;
36715;SDS011;22699;51.034;3.730;2023-04-24T06:33:07;24.20;;;13.88;;
36715;SDS011;22699;51.034;3.730;2023-04-24T06:35:32;24.45;;;12.85;;
36715;SDS011;22699;51.034;3.730;2023-04-24T06:37:58;23.67;;;13.15;;
36715;SDS011;22699;51.034;3.730;2023-04-24T06:40:24;19.38;;;12.18;;
36715;SDS011;22699;51.034;3.730;2023-04-24T06:42:52;17.25;;;10.75;;
36715;SDS011;22699;51.034;3.730;2023-04-24T06:45:18;21.13;;;10.77;;
36715;SDS011;22699;51.034;3.730;2023-04-24T06:47:44;19.73;;;11.63;;
36715;SDS011;22699;51.034;3.730;2023-04-24T06:50:11;23.40;;;11.27;;
36715;SDS011;22699;51.034;3.730;2023-04-24T06:52:36;28.25;;;13.77;;
36715;SDS011;22699;51.034;3.730;2023-04-24T06:55:03;25.88;;;13.35;;
36715;SDS011;22699;51.034;3.730;2023-04-24T06:57:29;24.05;;;13.07;;
36715;SDS011;22699;51.034;3.730;2023-04-24T06:59:55;21.63;;;12.52;;
36715;SDS011;22699;51.034;3.730;2023-04-24T07:02:22;20.27;;;11.55;;
36715;SDS011;22699;51.034;3.730;2023-04-24T07:04:50;24.80;;;12.35;;
36715;SDS011;22699;51.034;3.730;2023-04-24T07:07:16;19.27;;;10.02;;
36715;SDS011;22699;51.034;3.730;2023-04-24T07:09:42;21.50;;;9.65;;
36715;SDS011;22699;51.034;3.730;2023-04-24T07:12:09;24.63;;;10.95;;
36715;SDS011;22699;51.034;3.730;2023-04-24T07:14:37;20.58;;;9.18;;
36715;SDS011;22699;51.034;3.730;2023-04-24T07:17:04;21.35;;;9.25;;
36715;SDS011;22699;51.034;3.730;2023-04-24T07:19:31;22.98;;;10.32;;
36715;SDS011;22699;51.034;3.730;2023-04-24T07:22:00;14.45;;;9.10;;
36715;SDS011;22699;51.034;3.730;2023-04-24T07:24:26;21.02;;;10.77;;
36715;SDS011;22699;51.034;3.730;2023-04-24T07:26:52;20.48;;;8.90;;
36715;SDS011;22699;51.034;3.730;2023-04-24T07:29:19;17.75;;;8.77;;
36715;SDS011;22699;51.034;3.730;2023-04-24T07:31:45;19.83;;;8.40;;
36715;SDS011;22699;51.034;3.730;2023-04-24T07:34:10;17.52;;;8.10;;
36715;SDS011;22699;51.034;3.730;2023-04-24T07:36:36;12.98;;;8.15;;
36715;SDS011;22699;51.034;3.730;2023-04-24T07:39:04;19.02;;;8.75;;
36715;SDS011;22699;51.034;3.730;2023-04-24T07:41:31;15.85;;;7.32;;
36715;SDS011;22699;51.034;3.730;2023-04-24T07:43:57;13.38;;;6.78;;
36715;SDS011;22699;51.034;3.730;2023-04-24T07:46:24;15.68;;;7.75;;
36715;SDS011;22699;51.034;3.730;2023-04-24T07:48:57;16.23;;;7.57;;
36715;SDS011;22699;51.034;3.730;2023-04-24T07:51:24;16.50;;;7.20;;
36715;SDS011;22699;51.034;3.730;2023-04-24T07:53:52;18.45;;;6.90;;
36715;SDS011;22699;51.034;3.730;2023-04-24T07:56:22;17.48;;;7.25;;
36715;SDS011;22699;51.034;3.730;2023-04-24T07:58:55;21.73;;;7.80;;
36715;SDS011;22699;51.034;3.730;2023-04-24T08:01:24;17.80;;;6.82;;
36715;SDS011;22699;51.034;3.730;2023-04-24T08:03:53;14.25;;;6.55;;
36715;SDS011;22699;51.034;3.730;2023-04-24T08:06:19;16.85;;;5.53;;
36715;SDS011;22699;51.034;3.730;2023-04-24T08:08:45;8.98;;;4.43;;
36715;SDS011;22699;51.034;3.730;2023-04-24T08:11:10;14.10;;;4.13;;
36715;SDS011;22699;51.034;3.730;2023-04-24T08:13:37;10.80;;;3.63;;
36715;SDS011;22699;51.034;3.730;2023-04-24T08:16:03;10.20;;;4.10;;
36715;SDS011;22699;51.034;3.730;2023-04-24T08:18:30;11.40;;;4.90;;
36715;SDS011;22699;51.034;3.730;2023-04-24T08:20:57;10.20;;;4.03;;
36715;SDS011;22699;51.034;3.730;2023-04-24T08:23:29;7.57;;;4.07;;
36715;SDS011;22699;51.034;3.730;2023-04-24T08:28:25;12.88;;;3.88;;
36715;SDS011;22699;51.034;3.730;2023-04-24T08:30:51;11.35;;;3.53;;
36715;SDS011;22699;51.034;3.730;2023-04-24T08:33:19;5.90;;;3.42;;
36715;SDS011;22699;51.034;3.730;2023-04-24T08:35:46;10.35;;;4.00;;
36715;SDS011;22699;51.034;3.730;2023-04-24T08:38:14;10.25;;;3.55;;
36715;SDS011;22699;51.034;3.730;2023-04-24T08:40:41;9.40;;;3.38;;
36715;SDS011;22699;51.034;3.730;2023-04-24T08:43:09;10.52;;;3.88;;
36715;SDS011;22699;51.034;3.730;2023-04-24T08:45:40;8.65;;;3.20;;
36715;SDS011;22699;51.034;3.730;2023-04-24T08:48:05;6.95;;;2.90;;
36715;SDS011;22699;51.034;3.730;2023-04-24T08:50:35;6.47;;;3.65;;
36715;SDS011;22699;51.034;3.730;2023-04-24T08:53:01;9.80;;;3.42;;
36715;SDS011;22699;51.034;3.730;2023-04-24T08:57:59;10.27;;;4.25;;
36715;SDS011;22699;51.034;3.730;2023-04-24T09:00:26;10.48;;;4.63;;
36715;SDS011;22699;51.034;3.730;2023-04-24T09:02:53;10.25;;;4.82;;
36715;SDS011;22699;51.034;3.730;2023-04-24T09:08:05;11.60;;;3.80;;
36715;SDS011;22699;51.034;3.730;2023-04-24T09:10:36;8.50;;;3.90;;
36715;SDS011;22699;51.034;3.730;2023-04-24T09:13:06;11.15;;;4.20;;
36715;SDS011;22699;51.034;3.730;2023-04-24T09:15:45;9.10;;;4.78;;
36715;SDS011;22699;51.034;3.730;2023-04-24T09:18:11;11.20;;;5.10;;
36715;SDS011;22699;51.034;3.730;2023-04-24T09:23:35;8.93;;;4.20;;
36715;SDS011;22699;51.034;3.730;2023-04-24T09:26:05;10.75;;;4.80;;
36715;SDS011;22699;51.034;3.730;2023-04-24T09:28:40;14.43;;;4.35;;
36715;SDS011;22699;51.034;3.730;2023-04-24T09:31:12;9.95;;;4.70;;
36715;SDS011;22699;51.034;3.730;2023-04-24T09:36:38;9.27;;;4.40;;
36715;SDS011;22699;51.034;3.730;2023-04-24T09:39:13;8.20;;;3.42;;
36715;SDS011;22699;51.034;3.730;2023-04-24T09:41:53;14.23;;;4.00;;
36715;SDS011;22699;51.034;3.730;2023-04-24T09:44:24;6.03;;;3.60;;
36715;SDS011;22699;51.034;3.730;2023-04-24T09:46:56;8.82;;;3.10;;
36715;SDS011;22699;51.034;3.730;2023-04-24T09:49:29;8.35;;;3.83;;
36715;SDS011;22699;51.034;3.730;2023-04-24T09:54:39;7.40;;;3.33;;
36715;SDS011;22699;51.034;3.730;2023-04-24T09:57:07;7.82;;;3.72;;
36715;SDS011;22699;51.034;3.730;2023-04-24T09:59:38;7.50;;;3.50;;
36715;SDS011;22699;51.034;3.730;2023-04-24T10:02:17;7.95;;;3.40;;
36715;SDS011;22699;51.034;3.730;2023-04-24T10:04:54;8.80;;;4.00;;
36715;SDS011;22699;51.034;3.730;2023-04-24T10:07:21;6.30;;;3.78;;
36715;SDS011;22699;51.034;3.730;2023-04-24T10:09:48;6.45;;;3.58;;
36715;SDS011;22699;51.034;3.730;2023-04-24T10:12:15;10.40;;;3.45;;
36715;SDS011;22699;51.034;3.730;2023-04-24T10:14:42;8.05;;;4.22;;
36715;SDS011;22699;51.034;3.730;2023-04-24T10:17:10;11.68;;;4.20;;
36715;SDS011;22699;51.034;3.730;2023-04-24T10:19:39;8.88;;;3.92;;
36715;SDS011;22699;51.034;3.730;2023-04-24T10:22:07;6.40;;;3.33;;
36715;SDS011;22699;51.034;3.730;2023-04-24T10:24:33;7.00;;;3.10;;
36715;SDS011;22699;51.034;3.730;2023-04-24T10:27:01;7.72;;;3.22;;
36715;SDS011;22699;51.034;3.730;2023-04-24T10:29:30;7.80;;;3.60;;
36715;SDS011;22699;51.034;3.730;2023-04-24T10:31:58;10.25;;;4.70;;
36715;SDS011;22699;51.034;3.730;2023-04-24T10:34:23;27.15;;;15.80;;
36715;SDS011;22699;51.034;3.730;2023-04-24T10:36:54;13.27;;;7.65;;
36715;SDS011;22699;51.034;3.730;2023-04-24T10:39:25;5.60;;;3.58;;
36715;SDS011;22699;51.034;3.730;2023-04-24T10:41:50;7.90;;;3.58;;
36715;SDS011;22699;51.034;3.730;2023-04-24T10:44:16;9.35;;;3.75;;
36715;SDS011;22699;51.034;3.730;2023-04-24T10:46:46;7.25;;;3.17;;
36715;SDS011;22699;51.034;3.730;2023-04-24T10:49:17;5.45;;;3.90;;
36715;SDS011;22699;51.034;3.730;2023-04-24T10:51:53;8.55;;;4.47;;
36715;SDS011;22699;51.034;3.730;2023-04-24T10:54:26;8.77;;;3.70;;
36715;SDS011;22699;51.034;3.730;2023-04-24T10:56:52;8.40;;;3.45;;
36715;SDS011;22699;51.034;3.730;2023-04-24T10:59:27;9.02;;;3.88;;
36715;SDS011;22699;51.034;3.730;2023-04-24T11:02:01;6.53;;;3.38;;
36715;SDS011;22699;51.034;3.730;2023-04-24T11:04:32;10.00;;;4.15;;
36715;SDS011;22699;51.034;3.730;2023-04-24T11:07:00;9.30;;;4.32;;
36715;SDS011;22699;51.034;3.730;2023-04-24T11:09:32;9.75;;;3.55;;
36715;SDS011;22699;51.034;3.730;2023-04-24T11:12:08;8.50;;;4.05;;
36715;SDS011;22699;51.034;3.730;2023-04-24T11:17:35;9.07;;;3.95;;
36715;SDS011;22699;51.034;3.730;2023-04-24T11:20:22;8.73;;;3.95;;
36715;SDS011;22699;51.034;3.730;2023-04-24T11:25:30;6.68;;;3.83;;
36715;SDS011;22699;51.034;3.730;2023-04-24T11:28:05;5.93;;;3.40;;
36715;SDS011;22699;51.034;3.730;2023-04-24T11:33:07;6.45;;;3.80;;
36715;SDS011;22699;51.034;3.730;2023-04-24T11:35:40;8.10;;;3.17;;
36715;SDS011;22699;51.034;3.730;2023-04-24T11:38:05;8.93;;;2.80;;
36715;SDS011;22699;51.034;3.730;2023-04-24T11:40:33;7.43;;;2.75;;
36715;SDS011;22699;51.034;3.730;2023-04-24T11:43:02;8.82;;;3.10;;
36715;SDS011;22699;51.034;3.730;2023-04-24T11:45:47;4.65;;;2.90;;
36715;SDS011;22699;51.034;3.730;2023-04-24T11:48:22;4.97;;;2.70;;
36715;SDS011;22699;51.034;3.730;2023-04-24T11:50:48;7.43;;;2.83;;
36715;SDS011;22699;51.034;3.730;2023-04-24T11:53:13;5.93;;;2.22;;
36715;SDS011;22699;51.034;3.730;2023-04-24T11:55:39;6.07;;;2.70;;
36715;SDS011;22699;51.034;3.730;2023-04-24T11:58:05;5.13;;;2.35;;
36715;SDS011;22699;51.034;3.730;2023-04-24T12:00:34;7.75;;;2.22;;
36715;SDS011;22699;51.034;3.730;2023-04-24T12:03:06;7.50;;;2.90;;
36715;SDS011;22699;51.034;3.730;2023-04-24T12:05:36;10.30;;;4.65;;
36715;SDS011;22699;51.034;3.730;2023-04-24T12:08:02;5.22;;;2.97;;
36715;SDS011;22699;51.034;3.730;2023-04-24T12:10:30;6.25;;;2.35;;
36715;SDS011;22699;51.034;3.730;2023-04-24T12:12:59;4.50;;;1.67;;
36715;SDS011;22699;51.034;3.730;2023-04-24T12:15:25;7.55;;;2.58;;
36715;SDS011;22699;51.034;3.730;2023-04-24T12:17:52;7.25;;;2.47;;
36715;SDS011;22699;51.034;3.730;2023-04-24T12:20:29;6.07;;;1.90;;
36715;SDS011;22699;51.034;3.730;2023-04-24T12:22:57;5.00;;;2.22;;
36715;SDS011;22699;51.034;3.730;2023-04-24T12:25:27;8.35;;;1.88;;
36715;SDS011;22699;51.034;3.730;2023-04-24T12:30:48;3.30;;;1.65;;
36715;SDS011;22699;51.034;3.730;2023-04-24T12:33:23;3.67;;;1.70;;
36715;SDS011;22699;51.034;3.730;2023-04-24T12:35:53;5.88;;;2.03;;
36715;SDS011;22699;51.034;3.730;2023-04-24T12:38:21;4.95;;;1.70;;
36715;SDS011;22699;51.034;3.730;2023-04-24T12:43:26;3.80;;;1.40;;
36715;SDS011;22699;51.034;3.730;2023-04-24T12:45:53;3.17;;;1.33;;
36715;SDS011;22699;51.034;3.730;2023-04-24T12:48:19;4.43;;;1.88;;
36715;SDS011;22699;51.034;3.730;2023-04-24T12:50:45;3.55;;;1.65;;
36715;SDS011;22699;51.034;3.730;2023-04-24T12:53:13;8.00;;;1.48;;
36715;SDS011;22699;51.034;3.730;2023-04-24T12:55:40;2.88;;;1.13;;
36715;SDS011;22699;51.034;3.730;2023-04-24T12:58:06;5.07;;;1.67;;
36715;SDS011;22699;51.034;3.730;2023-04-24T13:00:33;5.35;;;1.40;;
36715;SDS011;22699;51.034;3.730;2023-04-24T13:03:00;5.90;;;1.60;;
36715;SDS011;22699;51.034;3.730;2023-04-24T13:05:26;4.28;;;1.30;;
36715;SDS011;22699;51.034;3.730;2023-04-24T13:07:57;2.85;;;1.27;;
36715;SDS011;22699;51.034;3.730;2023-04-24T13:10:22;5.05;;;2.13;;
36715;SDS011;22699;51.034;3.730;2023-04-24T13:12:49;4.18;;;1.20;;
36715;SDS011;22699;51.034;3.730;2023-04-24T13:15:15;5.55;;;1.65;;
36715;SDS011;22699;51.034;3.730;2023-04-24T13:17:41;3.20;;;1.02;;
36715;SDS011;22699;51.034;3.730;2023-04-24T13:20:07;4.53;;;1.13;;
36715;SDS011;22699;51.034;3.730;2023-04-24T13:22:35;5.65;;;1.40;;
36715;SDS011;22699;51.034;3.730;2023-04-24T13:25:01;6.75;;;1.35;;
36715;SDS011;22699;51.034;3.730;2023-04-24T13:27:27;3.42;;;1.23;;
36715;SDS011;22699;51.034;3.730;2023-04-24T13:29:54;3.72;;;1.20;;
36715;SDS011;22699;51.034;3.730;2023-04-24T13:32:24;3.33;;;1.30;;
36715;SDS011;22699;51.034;3.730;2023-04-24T13:34:50;2.50;;;0.90;;
36715;SDS011;22699;51.034;3.730;2023-04-24T13:37:17;2.47;;;1.05;;
36715;SDS011;22699;51.034;3.730;2023-04-24T13:39:43;3.67;;;1.27;;
36715;SDS011;22699;51.034;3.730;2023-04-24T13:42:12;4.55;;;1.17;;
36715;SDS011;22699;51.034;3.730;2023-04-24T13:44:42;4.15;;;1.60;;
36715;SDS011;22699;51.034;3.730;2023-04-24T13:47:12;3.63;;;1.00;;
36715;SDS011;22699;51.034;3.730;2023-04-24T13:49:38;4.60;;;0.98;;
36715;SDS011;22699;51.034;3.730;2023-04-24T13:52:05;4.57;;;1.10;;
36715;SDS011;22699;51.034;3.730;2023-04-24T13:54:35;6.25;;;1.30;;
36715;SDS011;22699;51.034;3.730;2023-04-24T13:57:01;2.60;;;1.17;;
36715;SDS011;22699;51.034;3.730;2023-04-24T13:59:31;6.43;;;1.42;;
36715;SDS011;22699;51.034;3.730;2023-04-24T14:02:00;2.95;;;1.10;;
36715;SDS011;22699;51.034;3.730;2023-04-24T14:04:26;2.40;;;0.70;;
36715;SDS011;22699;51.034;3.730;2023-04-24T14:06:53;4.82;;;0.85;;
36715;SDS011;22699;51.034;3.730;2023-04-24T14:09:18;6.85;;;1.20;;
36715;SDS011;22699;51.034;3.730;2023-04-24T14:11:44;3.30;;;1.20;;
36715;SDS011;22699;51.034;3.730;2023-04-24T14:14:10;3.58;;;0.85;;
36715;SDS011;22699;51.034;3.730;2023-04-24T14:16:36;5.38;;;1.15;;
36715;SDS011;22699;51.034;3.730;2023-04-24T14:19:02;4.70;;;1.20;;
36715;SDS011;22699;51.034;3.730;2023-04-24T14:21:30;3.13;;;1.15;;
36715;SDS011;22699;51.034;3.730;2023-04-24T14:23:57;5.07;;;1.58;;
36715;SDS011;22699;51.034;3.730;2023-04-24T14:26:23;1.58;;;0.98;;
36715;SDS011;22699;51.034;3.730;2023-04-24T14:28:49;3.05;;;1.50;;
36715;SDS011;22699;51.034;3.730;2023-04-24T14:31:16;2.88;;;1.73;;
36715;SDS011;22699;51.034;3.730;2023-04-24T14:33:42;2.92;;;1.38;;
36715;SDS011;22699;51.034;3.730;2023-04-24T14:36:08;3.97;;;1.65;;
36715;SDS011;22699;51.034;3.730;2023-04-24T14:38:34;3.22;;;0.90;;
36715;SDS011;22699;51.034;3.730;2023-04-24T14:41:00;5.15;;;0.90;;
36715;SDS011;22699;51.034;3.730;2023-04-24T14:43:27;2.67;;;0.70;;
36715;SDS011;22699;51.034;3.730;2023-04-24T14:45:54;3.50;;;0.70;;
36715;SDS011;22699;51.034;3.730;2023-04-24T14:48:19;3.10;;;1.10;;
36715;SDS011;22699;51.034;3.730;2023-04-24T14:50:45;3.08;;;1.00;;
36715;SDS011;22699;51.034;3.730;2023-04-24T14:53:10;2.13;;;0.98;;
36715;SDS011;22699;51.034;3.730;2023-04-24T14:55:42;3.17;;;1.20;;
36715;SDS011;22699;51.034;3.730;2023-04-24T14:58:08;3.80;;;1.25;;
36715;SDS011;22699;51.034;3.730;2023-04-24T15:00:35;3.22;;;1.20;;
36715;SDS011;22699;51.034;3.730;2023-04-24T15:03:01;3.17;;;1.25;;
36715;SDS011;22699;51.034;3.730;2023-04-24T15:05:27;3.72;;;1.00;;
36715;SDS011;22699;51.034;3.730;2023-04-24T15:07:55;10.38;;;1.60;;
36715;SDS011;22699;51.034;3.730;2023-04-24T15:10:21;2.83;;;0.95;;
36715;SDS011;22699;51.034;3.730;2023-04-24T15:12:48;2.97;;;0.82;;